Terminal Aerodrome Forecast
Issued by NWS Wilmington, OH

Current Version | Previous Version | Graphics & Text | Print | Product List | Glossary On
Versions: 1 2 3 4 5 6 7 8 9 10 11 12 13 14 15 16 17 18 19 20 21 22
000
FTUS41 KILN 291100
TAFCVG
TAF
KCVG 291135Z 2912/3018 31005KT P6SM SCT035
     FM291500 31008KT P6SM BKN040
     FM300100 27003KT P6SM SCT040
     FM301500 26007KT P6SM BKN040=

USA.gov is the U.S. government's official web portal to all federal, state and local government web resources and services.